sensor_id;sensor_type;location;lat;lon;timestamp;P1;durP1;ratioP1;P2;durP2;ratioP2
46411;SDS011;32113;42.012;24.870;2024-03-02T00:00:10;58.53;;;35.90;;
46411;SDS011;32113;42.012;24.870;2024-03-02T00:02:49;53.78;;;33.33;;
46411;SDS011;32113;42.012;24.870;2024-03-02T00:05:16;55.97;;;32.47;;
46411;SDS011;32113;42.012;24.870;2024-03-02T00:10:09;56.22;;;34.08;;
46411;SDS011;32113;42.012;24.870;2024-03-02T00:12:36;56.75;;;34.53;;
46411;SDS011;32113;42.012;24.870;2024-03-02T00:15:06;54.78;;;34.22;;
46411;SDS011;32113;42.012;24.870;2024-03-02T00:18:02;55.08;;;34.05;;
46411;SDS011;32113;42.012;24.870;2024-03-02T00:20:29;57.67;;;35.85;;
46411;SDS011;32113;42.012;24.870;2024-03-02T00:22:57;64.60;;;36.85;;
46411;SDS011;32113;42.012;24.870;2024-03-02T00:26:12;63.38;;;37.38;;
46411;SDS011;32113;42.012;24.870;2024-03-02T00:33:36;64.68;;;38.78;;
46411;SDS011;32113;42.012;24.870;2024-03-02T00:36:05;71.50;;;38.28;;
46411;SDS011;32113;42.012;24.870;2024-03-02T00:38:32;69.07;;;38.95;;
46411;SDS011;32113;42.012;24.870;2024-03-02T00:40:59;70.80;;;39.33;;
46411;SDS011;32113;42.012;24.870;2024-03-02T00:43:42;69.65;;;39.35;;
46411;SDS011;32113;42.012;24.870;2024-03-02T00:46:16;69.07;;;38.30;;
46411;SDS011;32113;42.012;24.870;2024-03-02T00:48:52;83.45;;;42.85;;
46411;SDS011;32113;42.012;24.870;2024-03-02T00:51:22;77.00;;;39.28;;
46411;SDS011;32113;42.012;24.870;2024-03-02T00:53:49;84.28;;;42.60;;
46411;SDS011;32113;42.012;24.870;2024-03-02T00:56:16;77.18;;;40.75;;
46411;SDS011;32113;42.012;24.870;2024-03-02T00:58:41;79.43;;;42.97;;
46411;SDS011;32113;42.012;24.870;2024-03-02T01:01:07;85.20;;;43.33;;
46411;SDS011;32113;42.012;24.870;2024-03-02T01:03:33;86.40;;;42.88;;
46411;SDS011;32113;42.012;24.870;2024-03-02T01:05:59;89.75;;;41.15;;
46411;SDS011;32113;42.012;24.870;2024-03-02T01:08:24;89.95;;;42.67;;
46411;SDS011;32113;42.012;24.870;2024-03-02T01:10:51;90.53;;;43.30;;
46411;SDS011;32113;42.012;24.870;2024-03-02T01:13:16;92.45;;;45.15;;
46411;SDS011;32113;42.012;24.870;2024-03-02T01:15:42;93.15;;;43.35;;
46411;SDS011;32113;42.012;24.870;2024-03-02T01:18:07;89.40;;;43.25;;
46411;SDS011;32113;42.012;24.870;2024-03-02T01:20:32;91.90;;;43.75;;
46411;SDS011;32113;42.012;24.870;2024-03-02T01:22:58;101.82;;;46.72;;
46411;SDS011;32113;42.012;24.870;2024-03-02T01:25:24;98.20;;;45.58;;
46411;SDS011;32113;42.012;24.870;2024-03-02T01:27:50;95.75;;;43.13;;
46411;SDS011;32113;42.012;24.870;2024-03-02T01:30:15;97.32;;;43.35;;
46411;SDS011;32113;42.012;24.870;2024-03-02T01:32:41;89.93;;;43.28;;
46411;SDS011;32113;42.012;24.870;2024-03-02T01:35:06;91.18;;;40.88;;
46411;SDS011;32113;42.012;24.870;2024-03-02T01:37:32;94.93;;;42.45;;
46411;SDS011;32113;42.012;24.870;2024-03-02T01:39:58;80.70;;;42.75;;
46411;SDS011;32113;42.012;24.870;2024-03-02T01:42:23;92.20;;;45.17;;
46411;SDS011;32113;42.012;24.870;2024-03-02T01:44:49;106.72;;;46.17;;
46411;SDS011;32113;42.012;24.870;2024-03-02T01:47:14;111.53;;;45.50;;
46411;SDS011;32113;42.012;24.870;2024-03-02T01:49:40;103.43;;;48.10;;
46411;SDS011;32113;42.012;24.870;2024-03-02T01:52:06;113.45;;;51.13;;
46411;SDS011;32113;42.012;24.870;2024-03-02T01:54:32;111.80;;;48.60;;
46411;SDS011;32113;42.012;24.870;2024-03-02T01:56:57;113.30;;;47.13;;
46411;SDS011;32113;42.012;24.870;2024-03-02T01:59:23;112.70;;;47.53;;
46411;SDS011;32113;42.012;24.870;2024-03-02T02:01:49;118.82;;;50.28;;
46411;SDS011;32113;42.012;24.870;2024-03-02T02:04:14;121.43;;;48.85;;
46411;SDS011;32113;42.012;24.870;2024-03-02T02:06:39;111.57;;;47.38;;
46411;SDS011;32113;42.012;24.870;2024-03-02T02:09:05;116.45;;;50.28;;
46411;SDS011;32113;42.012;24.870;2024-03-02T02:11:33;114.75;;;48.50;;
46411;SDS011;32113;42.012;24.870;2024-03-02T02:13:59;113.22;;;49.50;;
46411;SDS011;32113;42.012;24.870;2024-03-02T02:16:24;105.25;;;47.30;;
46411;SDS011;32113;42.012;24.870;2024-03-02T02:18:50;112.22;;;46.03;;
46411;SDS011;32113;42.012;24.870;2024-03-02T02:21:15;103.38;;;44.10;;
46411;SDS011;32113;42.012;24.870;2024-03-02T02:23:40;92.28;;;41.67;;
46411;SDS011;32113;42.012;24.870;2024-03-02T02:26:11;98.72;;;44.47;;
46411;SDS011;32113;42.012;24.870;2024-03-02T02:28:36;101.60;;;44.47;;
46411;SDS011;32113;42.012;24.870;2024-03-02T02:31:02;96.78;;;44.22;;
46411;SDS011;32113;42.012;24.870;2024-03-02T02:33:28;99.47;;;43.45;;
46411;SDS011;32113;42.012;24.870;2024-03-02T02:35:54;92.75;;;42.08;;
46411;SDS011;32113;42.012;24.870;2024-03-02T02:38:19;84.35;;;41.40;;
46411;SDS011;32113;42.012;24.870;2024-03-02T02:40:45;87.28;;;41.47;;
46411;SDS011;32113;42.012;24.870;2024-03-02T02:43:10;100.05;;;43.13;;
46411;SDS011;32113;42.012;24.870;2024-03-02T02:45:36;91.82;;;40.42;;
46411;SDS011;32113;42.012;24.870;2024-03-02T02:48:01;92.40;;;41.15;;
46411;SDS011;32113;42.012;24.870;2024-03-02T02:50:27;100.18;;;40.90;;
46411;SDS011;32113;42.012;24.870;2024-03-02T02:52:53;95.53;;;40.33;;
46411;SDS011;32113;42.012;24.870;2024-03-02T02:55:18;95.95;;;40.97;;
46411;SDS011;32113;42.012;24.870;2024-03-02T02:57:44;84.55;;;38.53;;
46411;SDS011;32113;42.012;24.870;2024-03-02T03:02:41;79.72;;;38.33;;
46411;SDS011;32113;42.012;24.870;2024-03-02T03:05:07;83.38;;;39.05;;
46411;SDS011;32113;42.012;24.870;2024-03-02T03:07:34;83.13;;;36.40;;
46411;SDS011;32113;42.012;24.870;2024-03-02T03:10:00;87.95;;;39.75;;
46411;SDS011;32113;42.012;24.870;2024-03-02T03:12:25;84.85;;;39.33;;
46411;SDS011;32113;42.012;24.870;2024-03-02T03:14:51;84.07;;;39.65;;
46411;SDS011;32113;42.012;24.870;2024-03-02T03:17:16;93.25;;;41.70;;
46411;SDS011;32113;42.012;24.870;2024-03-02T03:19:42;90.65;;;40.08;;
46411;SDS011;32113;42.012;24.870;2024-03-02T03:22:08;84.72;;;39.28;;
46411;SDS011;32113;42.012;24.870;2024-03-02T03:24:33;78.78;;;38.70;;
46411;SDS011;32113;42.012;24.870;2024-03-02T03:26:58;78.60;;;38.67;;
46411;SDS011;32113;42.012;24.870;2024-03-02T03:29:24;75.68;;;37.15;;
46411;SDS011;32113;42.012;24.870;2024-03-02T03:31:49;82.82;;;38.55;;
46411;SDS011;32113;42.012;24.870;2024-03-02T03:34:15;73.60;;;36.80;;
46411;SDS011;32113;42.012;24.870;2024-03-02T03:36:41;67.80;;;35.50;;
46411;SDS011;32113;42.012;24.870;2024-03-02T03:39:07;72.90;;;37.85;;
46411;SDS011;32113;42.012;24.870;2024-03-02T03:41:32;66.80;;;37.35;;
46411;SDS011;32113;42.012;24.870;2024-03-02T03:43:58;66.38;;;35.97;;
46411;SDS011;32113;42.012;24.870;2024-03-02T03:46:23;66.10;;;35.42;;
46411;SDS011;32113;42.012;24.870;2024-03-02T03:48:49;68.50;;;35.85;;
46411;SDS011;32113;42.012;24.870;2024-03-02T03:51:14;71.03;;;38.35;;
46411;SDS011;32113;42.012;24.870;2024-03-02T03:53:39;71.75;;;36.83;;
46411;SDS011;32113;42.012;24.870;2024-03-02T03:56:05;66.65;;;35.35;;
46411;SDS011;32113;42.012;24.870;2024-03-02T03:58:30;71.05;;;35.72;;
46411;SDS011;32113;42.012;24.870;2024-03-02T04:00:56;68.82;;;35.78;;
46411;SDS011;32113;42.012;24.870;2024-03-02T04:03:21;75.82;;;37.33;;
46411;SDS011;32113;42.012;24.870;2024-03-02T04:05:47;72.45;;;37.58;;
46411;SDS011;32113;42.012;24.870;2024-03-02T04:08:12;79.30;;;39.47;;
46411;SDS011;32113;42.012;24.870;2024-03-02T04:10:38;75.72;;;40.00;;
46411;SDS011;32113;42.012;24.870;2024-03-02T04:13:03;84.70;;;40.47;;
46411;SDS011;32113;42.012;24.870;2024-03-02T04:15:29;80.78;;;38.55;;
46411;SDS011;32113;42.012;24.870;2024-03-02T04:17:54;87.80;;;39.63;;
46411;SDS011;32113;42.012;24.870;2024-03-02T04:20:20;80.68;;;39.25;;
46411;SDS011;32113;42.012;24.870;2024-03-02T04:22:45;92.05;;;41.40;;
46411;SDS011;32113;42.012;24.870;2024-03-02T04:25:11;88.88;;;40.25;;
46411;SDS011;32113;42.012;24.870;2024-03-02T04:27:36;92.85;;;41.13;;
46411;SDS011;32113;42.012;24.870;2024-03-02T04:30:02;92.28;;;43.28;;
46411;SDS011;32113;42.012;24.870;2024-03-02T04:32:28;99.35;;;43.53;;
46411;SDS011;32113;42.012;24.870;2024-03-02T04:34:54;96.57;;;41.65;;
46411;SDS011;32113;42.012;24.870;2024-03-02T04:37:19;97.72;;;41.65;;
46411;SDS011;32113;42.012;24.870;2024-03-02T04:39:45;96.30;;;40.78;;
46411;SDS011;32113;42.012;24.870;2024-03-02T04:42:10;92.88;;;40.63;;
46411;SDS011;32113;42.012;24.870;2024-03-02T04:44:36;96.10;;;42.25;;
46411;SDS011;32113;42.012;24.870;2024-03-02T04:47:03;97.15;;;40.65;;
46411;SDS011;32113;42.012;24.870;2024-03-02T04:49:29;88.85;;;39.35;;
46411;SDS011;32113;42.012;24.870;2024-03-02T04:51:55;95.47;;;41.28;;
46411;SDS011;32113;42.012;24.870;2024-03-02T04:54:20;98.03;;;41.60;;
46411;SDS011;32113;42.012;24.870;2024-03-02T04:56:46;89.80;;;39.33;;
46411;SDS011;32113;42.012;24.870;2024-03-02T04:59:18;89.07;;;41.00;;
46411;SDS011;32113;42.012;24.870;2024-03-02T05:01:44;88.55;;;41.58;;
46411;SDS011;32113;42.012;24.870;2024-03-02T05:04:10;86.07;;;38.45;;
46411;SDS011;32113;42.012;24.870;2024-03-02T05:06:39;99.80;;;41.85;;
46411;SDS011;32113;42.012;24.870;2024-03-02T05:09:09;95.22;;;41.35;;
46411;SDS011;32113;42.012;24.870;2024-03-02T05:11:35;88.00;;;40.28;;
46411;SDS011;32113;42.012;24.870;2024-03-02T05:14:00;97.30;;;40.13;;
46411;SDS011;32113;42.012;24.870;2024-03-02T05:16:26;101.15;;;40.85;;
46411;SDS011;32113;42.012;24.870;2024-03-02T05:18:51;95.88;;;40.08;;
46411;SDS011;32113;42.012;24.870;2024-03-02T05:21:16;97.85;;;41.90;;
46411;SDS011;32113;42.012;24.870;2024-03-02T05:23:42;101.30;;;40.45;;
46411;SDS011;32113;42.012;24.870;2024-03-02T05:26:07;102.72;;;42.25;;
46411;SDS011;32113;42.012;24.870;2024-03-02T05:28:33;97.28;;;40.50;;
46411;SDS011;32113;42.012;24.870;2024-03-02T05:30:58;97.30;;;40.95;;
46411;SDS011;32113;42.012;24.870;2024-03-02T05:33:23;90.43;;;39.20;;
46411;SDS011;32113;42.012;24.870;2024-03-02T05:35:49;87.18;;;39.15;;
46411;SDS011;32113;42.012;24.870;2024-03-02T05:38:17;87.18;;;39.13;;
46411;SDS011;32113;42.012;24.870;2024-03-02T05:40:42;75.20;;;36.53;;
46411;SDS011;32113;42.012;24.870;2024-03-02T05:43:08;79.18;;;36.13;;
46411;SDS011;32113;42.012;24.870;2024-03-02T05:45:33;76.25;;;35.00;;
46411;SDS011;32113;42.012;24.870;2024-03-02T05:47:59;66.22;;;31.42;;
46411;SDS011;32113;42.012;24.870;2024-03-02T05:50:24;63.03;;;32.10;;
46411;SDS011;32113;42.012;24.870;2024-03-02T05:52:49;63.50;;;32.13;;
46411;SDS011;32113;42.012;24.870;2024-03-02T05:55:15;56.03;;;30.98;;
46411;SDS011;32113;42.012;24.870;2024-03-02T05:57:40;57.60;;;29.55;;
46411;SDS011;32113;42.012;24.870;2024-03-02T06:00:06;50.80;;;27.25;;
46411;SDS011;32113;42.012;24.870;2024-03-02T06:02:33;52.83;;;28.75;;
46411;SDS011;32113;42.012;24.870;2024-03-02T06:05:00;51.50;;;27.93;;
46411;SDS011;32113;42.012;24.870;2024-03-02T06:07:25;49.17;;;27.25;;
46411;SDS011;32113;42.012;24.870;2024-03-02T06:09:51;45.33;;;27.25;;
46411;SDS011;32113;42.012;24.870;2024-03-02T06:12:17;44.42;;;25.45;;
46411;SDS011;32113;42.012;24.870;2024-03-02T06:14:43;49.70;;;27.02;;
46411;SDS011;32113;42.012;24.870;2024-03-02T06:17:09;43.28;;;25.75;;
46411;SDS011;32113;42.012;24.870;2024-03-02T06:19:34;49.40;;;27.50;;
46411;SDS011;32113;42.012;24.870;2024-03-02T06:22:00;43.55;;;25.70;;
46411;SDS011;32113;42.012;24.870;2024-03-02T06:24:25;97.20;;;66.13;;
46411;SDS011;32113;42.012;24.870;2024-03-02T06:26:51;58.53;;;35.80;;
46411;SDS011;32113;42.012;24.870;2024-03-02T06:29:17;46.53;;;29.60;;
46411;SDS011;32113;42.012;24.870;2024-03-02T06:31:42;47.45;;;29.25;;
46411;SDS011;32113;42.012;24.870;2024-03-02T06:34:07;39.85;;;25.30;;
46411;SDS011;32113;42.012;24.870;2024-03-02T06:36:33;40.42;;;25.77;;
46411;SDS011;32113;42.012;24.870;2024-03-02T06:38:59;40.70;;;26.00;;
46411;SDS011;32113;42.012;24.870;2024-03-02T06:41:24;40.75;;;24.25;;
46411;SDS011;32113;42.012;24.870;2024-03-02T06:43:51;38.42;;;23.80;;
46411;SDS011;32113;42.012;24.870;2024-03-02T06:46:24;37.13;;;23.38;;
46411;SDS011;32113;42.012;24.870;2024-03-02T06:48:50;40.83;;;24.17;;
46411;SDS011;32113;42.012;24.870;2024-03-02T06:51:15;41.17;;;25.65;;
46411;SDS011;32113;42.012;24.870;2024-03-02T06:53:40;38.97;;;24.13;;
46411;SDS011;32113;42.012;24.870;2024-03-02T06:56:06;43.72;;;25.88;;
46411;SDS011;32113;42.012;24.870;2024-03-02T06:58:34;49.70;;;29.90;;
46411;SDS011;32113;42.012;24.870;2024-03-02T07:00:59;43.63;;;25.85;;
46411;SDS011;32113;42.012;24.870;2024-03-02T07:03:27;41.25;;;23.38;;
46411;SDS011;32113;42.012;24.870;2024-03-02T07:05:53;37.75;;;22.48;;
46411;SDS011;32113;42.012;24.870;2024-03-02T07:08:19;38.35;;;25.40;;
46411;SDS011;32113;42.012;24.870;2024-03-02T07:10:44;37.42;;;24.50;;
46411;SDS011;32113;42.012;24.870;2024-03-02T07:13:09;38.47;;;23.77;;
46411;SDS011;32113;42.012;24.870;2024-03-02T07:15:35;34.83;;;22.58;;
46411;SDS011;32113;42.012;24.870;2024-03-02T07:18:18;32.97;;;21.27;;
46411;SDS011;32113;42.012;24.870;2024-03-02T07:20:44;33.33;;;20.00;;
46411;SDS011;32113;42.012;24.870;2024-03-02T07:23:09;32.03;;;21.45;;
46411;SDS011;32113;42.012;24.870;2024-03-02T07:25:35;31.95;;;21.42;;
46411;SDS011;32113;42.012;24.870;2024-03-02T07:28:00;28.10;;;19.50;;
46411;SDS011;32113;42.012;24.870;2024-03-02T07:30:26;28.90;;;20.20;;
46411;SDS011;32113;42.012;24.870;2024-03-02T07:32:51;29.40;;;20.67;;
46411;SDS011;32113;42.012;24.870;2024-03-02T07:35:17;32.80;;;21.92;;
46411;SDS011;32113;42.012;24.870;2024-03-02T07:37:43;29.58;;;20.05;;
46411;SDS011;32113;42.012;24.870;2024-03-02T07:40:09;31.33;;;20.98;;
46411;SDS011;32113;42.012;24.870;2024-03-02T07:42:40;40.05;;;24.73;;
46411;SDS011;32113;42.012;24.870;2024-03-02T07:45:06;37.03;;;24.30;;
46411;SDS011;32113;42.012;24.870;2024-03-02T07:47:32;42.58;;;28.00;;
46411;SDS011;32113;42.012;24.870;2024-03-02T07:49:59;31.77;;;21.45;;
46411;SDS011;32113;42.012;24.870;2024-03-02T07:52:24;32.35;;;20.88;;
46411;SDS011;32113;42.012;24.870;2024-03-02T07:54:49;30.05;;;20.60;;
46411;SDS011;32113;42.012;24.870;2024-03-02T07:57:15;33.25;;;21.80;;
46411;SDS011;32113;42.012;24.870;2024-03-02T07:59:40;28.77;;;20.27;;
46411;SDS011;32113;42.012;24.870;2024-03-02T08:02:06;33.83;;;22.67;;
46411;SDS011;32113;42.012;24.870;2024-03-02T08:04:32;38.88;;;25.13;;
46411;SDS011;32113;42.012;24.870;2024-03-02T08:06:57;37.92;;;26.67;;
46411;SDS011;32113;42.012;24.870;2024-03-02T08:09:23;51.10;;;38.95;;
46411;SDS011;32113;42.012;24.870;2024-03-02T08:11:48;60.40;;;47.33;;
46411;SDS011;32113;42.012;24.870;2024-03-02T08:14:14;53.30;;;39.75;;
46411;SDS011;32113;42.012;24.870;2024-03-02T08:16:39;58.00;;;42.88;;
46411;SDS011;32113;42.012;24.870;2024-03-02T08:19:05;100.90;;;72.28;;
46411;SDS011;32113;42.012;24.870;2024-03-02T08:21:31;104.28;;;70.35;;
46411;SDS011;32113;42.012;24.870;2024-03-02T08:23:57;85.43;;;56.78;;
46411;SDS011;32113;42.012;24.870;2024-03-02T08:26:23;62.05;;;43.60;;
46411;SDS011;32113;42.012;24.870;2024-03-02T08:28:49;63.13;;;45.78;;
46411;SDS011;32113;42.012;24.870;2024-03-02T08:31:14;68.72;;;47.38;;
46411;SDS011;32113;42.012;24.870;2024-03-02T08:33:39;68.75;;;48.28;;
46411;SDS011;32113;42.012;24.870;2024-03-02T08:36:05;77.30;;;50.60;;
46411;SDS011;32113;42.012;24.870;2024-03-02T08:38:31;76.68;;;54.13;;
46411;SDS011;32113;42.012;24.870;2024-03-02T08:40:57;83.35;;;56.35;;
46411;SDS011;32113;42.012;24.870;2024-03-02T08:43:22;72.78;;;50.60;;
46411;SDS011;32113;42.012;24.870;2024-03-02T08:45:48;80.28;;;56.33;;
46411;SDS011;32113;42.012;24.870;2024-03-02T08:48:14;68.00;;;49.67;;
46411;SDS011;32113;42.012;24.870;2024-03-02T08:50:40;75.28;;;51.92;;
46411;SDS011;32113;42.012;24.870;2024-03-02T08:53:05;77.53;;;55.03;;
46411;SDS011;32113;42.012;24.870;2024-03-02T08:55:31;57.63;;;39.92;;
46411;SDS011;32113;42.012;24.870;2024-03-02T08:57:56;84.32;;;52.55;;
46411;SDS011;32113;42.012;24.870;2024-03-02T09:00:22;69.50;;;46.13;;
46411;SDS011;32113;42.012;24.870;2024-03-02T09:02:48;53.60;;;36.13;;
46411;SDS011;32113;42.012;24.870;2024-03-02T09:05:14;65.75;;;41.60;;
46411;SDS011;32113;42.012;24.870;2024-03-02T09:07:39;54.30;;;37.22;;
46411;SDS011;32113;42.012;24.870;2024-03-02T09:10:05;406.80;;;309.58;;
46411;SDS011;32113;42.012;24.870;2024-03-02T09:12:32;320.30;;;275.20;;
46411;SDS011;32113;42.012;24.870;2024-03-02T09:14:57;85.60;;;64.38;;
46411;SDS011;32113;42.012;24.870;2024-03-02T09:17:24;77.15;;;54.10;;
46411;SDS011;32113;42.012;24.870;2024-03-02T09:19:49;52.67;;;34.63;;
46411;SDS011;32113;42.012;24.870;2024-03-02T09:22:17;49.90;;;33.65;;
46411;SDS011;32113;42.012;24.870;2024-03-02T09:24:43;54.47;;;33.42;;
46411;SDS011;32113;42.012;24.870;2024-03-02T09:27:08;53.47;;;33.28;;
46411;SDS011;32113;42.012;24.870;2024-03-02T09:29:34;55.47;;;35.05;;
46411;SDS011;32113;42.012;24.870;2024-03-02T09:31:59;57.90;;;34.58;;
46411;SDS011;32113;42.012;24.870;2024-03-02T09:34:25;55.05;;;36.25;;
46411;SDS011;32113;42.012;24.870;2024-03-02T09:36:50;52.72;;;33.67;;
46411;SDS011;32113;42.012;24.870;2024-03-02T09:39:16;57.33;;;34.17;;
46411;SDS011;32113;42.012;24.870;2024-03-02T09:41:43;73.93;;;42.97;;
46411;SDS011;32113;42.012;24.870;2024-03-02T09:44:09;59.45;;;37.20;;
46411;SDS011;32113;42.012;24.870;2024-03-02T09:46:34;69.47;;;41.90;;
46411;SDS011;32113;42.012;24.870;2024-03-02T09:49:01;60.90;;;38.55;;
46411;SDS011;32113;42.012;24.870;2024-03-02T09:51:27;76.18;;;44.95;;
46411;SDS011;32113;42.012;24.870;2024-03-02T09:53:52;58.60;;;36.33;;
46411;SDS011;32113;42.012;24.870;2024-03-02T09:56:20;63.13;;;37.55;;
46411;SDS011;32113;42.012;24.870;2024-03-02T09:58:47;108.20;;;59.67;;
46411;SDS011;32113;42.012;24.870;2024-03-02T10:01:12;135.45;;;73.88;;
46411;SDS011;32113;42.012;24.870;2024-03-02T10:03:38;157.70;;;84.72;;
46411;SDS011;32113;42.012;24.870;2024-03-02T10:06:23;112.40;;;61.72;;
46411;SDS011;32113;42.012;24.870;2024-03-02T10:08:50;62.63;;;38.38;;
46411;SDS011;32113;42.012;24.870;2024-03-02T10:11:26;103.38;;;58.47;;
46411;SDS011;32113;42.012;24.870;2024-03-02T10:14:13;103.07;;;56.83;;
46411;SDS011;32113;42.012;24.870;2024-03-02T10:16:40;125.32;;;69.75;;
46411;SDS011;32113;42.012;24.870;2024-03-02T10:19:40;70.38;;;42.22;;
46411;SDS011;32113;42.012;24.870;2024-03-02T10:22:00;102.30;;;56.72;;
46411;SDS011;32113;42.012;24.870;2024-03-02T10:24:28;74.15;;;45.15;;
46411;SDS011;32113;42.012;24.870;2024-03-02T10:27:07;59.28;;;38.00;;
46411;SDS011;32113;42.012;24.870;2024-03-02T10:29:39;57.10;;;37.30;;
46411;SDS011;32113;42.012;24.870;2024-03-02T10:32:05;62.08;;;39.35;;
46411;SDS011;32113;42.012;24.870;2024-03-02T10:36:59;64.82;;;40.67;;
46411;SDS011;32113;42.012;24.870;2024-03-02T10:39:24;61.58;;;38.67;;
46411;SDS011;32113;42.012;24.870;2024-03-02T10:41:51;77.70;;;41.72;;
46411;SDS011;32113;42.012;24.870;2024-03-02T10:44:17;60.58;;;37.60;;
46411;SDS011;32113;42.012;24.870;2024-03-02T10:46:43;66.07;;;41.13;;
46411;SDS011;32113;42.012;24.870;2024-03-02T10:49:12;70.65;;;42.38;;
46411;SDS011;32113;42.012;24.870;2024-03-02T10:51:37;70.68;;;42.38;;
46411;SDS011;32113;42.012;24.870;2024-03-02T10:54:03;68.95;;;41.15;;
46411;SDS011;32113;42.012;24.870;2024-03-02T11:01:31;62.22;;;38.65;;
46411;SDS011;32113;42.012;24.870;2024-03-02T11:03:58;61.15;;;37.17;;
46411;SDS011;32113;42.012;24.870;2024-03-02T11:06:25;65.55;;;41.65;;
46411;SDS011;32113;42.012;24.870;2024-03-02T11:08:53;70.38;;;43.22;;
46411;SDS011;32113;42.012;24.870;2024-03-02T11:11:28;63.22;;;38.63;;
46411;SDS011;32113;42.012;24.870;2024-03-02T11:13:57;60.58;;;37.38;;
46411;SDS011;32113;42.012;24.870;2024-03-02T11:16:33;63.75;;;36.60;;
46411;SDS011;32113;42.012;24.870;2024-03-02T11:19:01;63.50;;;39.03;;
46411;SDS011;32113;42.012;24.870;2024-03-02T11:21:34;56.17;;;36.05;;
46411;SDS011;32113;42.012;24.870;2024-03-02T11:24:04;57.67;;;36.58;;
46411;SDS011;32113;42.012;24.870;2024-03-02T11:26:46;56.03;;;36.78;;
46411;SDS011;32113;42.012;24.870;2024-03-02T11:29:36;63.63;;;37.75;;
46411;SDS011;32113;42.012;24.870;2024-03-02T11:32:03;64.07;;;38.30;;
46411;SDS011;32113;42.012;24.870;2024-03-02T11:34:30;63.47;;;39.50;;
46411;SDS011;32113;42.012;24.870;2024-03-02T11:37:03;62.85;;;37.75;;
46411;SDS011;32113;42.012;24.870;2024-03-02T11:39:29;57.47;;;37.05;;
46411;SDS011;32113;42.012;24.870;2024-03-02T11:41:55;58.63;;;38.45;;
46411;SDS011;32113;42.012;24.870;2024-03-02T11:44:25;69.55;;;44.90;;
46411;SDS011;32113;42.012;24.870;2024-03-02T11:47:00;58.92;;;39.20;;
46411;SDS011;32113;42.012;24.870;2024-03-02T11:52:05;57.58;;;38.88;;
46411;SDS011;32113;42.012;24.870;2024-03-02T11:54:34;61.38;;;40.38;;
46411;SDS011;32113;42.012;24.870;2024-03-02T11:57:04;66.25;;;41.05;;
46411;SDS011;32113;42.012;24.870;2024-03-02T11:59:30;53.72;;;35.83;;
46411;SDS011;32113;42.012;24.870;2024-03-02T12:01:57;46.42;;;32.33;;
46411;SDS011;32113;42.012;24.870;2024-03-02T12:04:23;47.92;;;33.47;;
46411;SDS011;32113;42.012;24.870;2024-03-02T12:06:56;47.63;;;31.55;;
46411;SDS011;32113;42.012;24.870;2024-03-02T12:09:29;52.22;;;33.17;;
46411;SDS011;32113;42.012;24.870;2024-03-02T12:12:03;50.95;;;34.28;;
46411;SDS011;32113;42.012;24.870;2024-03-02T12:14:29;44.15;;;30.95;;
46411;SDS011;32113;42.012;24.870;2024-03-02T12:16:55;41.53;;;30.58;;
46411;SDS011;32113;42.012;24.870;2024-03-02T12:19:21;47.63;;;31.73;;
46411;SDS011;32113;42.012;24.870;2024-03-02T12:21:46;56.30;;;36.63;;
46411;SDS011;32113;42.012;24.870;2024-03-02T12:24:12;45.53;;;32.88;;
46411;SDS011;32113;42.012;24.870;2024-03-02T12:26:38;48.20;;;33.58;;
46411;SDS011;32113;42.012;24.870;2024-03-02T12:29:04;47.08;;;32.95;;
46411;SDS011;32113;42.012;24.870;2024-03-02T12:31:29;46.75;;;32.60;;
46411;SDS011;32113;42.012;24.870;2024-03-02T12:33:55;69.63;;;41.85;;
46411;SDS011;32113;42.012;24.870;2024-03-02T12:36:20;53.72;;;36.33;;
46411;SDS011;32113;42.012;24.870;2024-03-02T12:38:47;57.33;;;37.80;;
46411;SDS011;32113;42.012;24.870;2024-03-02T12:41:16;51.85;;;34.58;;
46411;SDS011;32113;42.012;24.870;2024-03-02T12:43:41;46.45;;;33.05;;
46411;SDS011;32113;42.012;24.870;2024-03-02T12:46:07;48.13;;;33.50;;
46411;SDS011;32113;42.012;24.870;2024-03-02T12:48:33;45.47;;;30.52;;
46411;SDS011;32113;42.012;24.870;2024-03-02T12:50:59;35.05;;;26.42;;
46411;SDS011;32113;42.012;24.870;2024-03-02T12:53:24;31.42;;;24.00;;
46411;SDS011;32113;42.012;24.870;2024-03-02T12:55:50;38.30;;;26.77;;
46411;SDS011;32113;42.012;24.870;2024-03-02T12:58:19;37.70;;;27.10;;
46411;SDS011;32113;42.012;24.870;2024-03-02T13:00:46;49.58;;;33.40;;
46411;SDS011;32113;42.012;24.870;2024-03-02T13:03:12;37.42;;;26.20;;
46411;SDS011;32113;42.012;24.870;2024-03-02T13:05:38;30.35;;;22.42;;
46411;SDS011;32113;42.012;24.870;2024-03-02T13:08:05;31.55;;;24.30;;
46411;SDS011;32113;42.012;24.870;2024-03-02T13:10:32;33.00;;;24.65;;
46411;SDS011;32113;42.012;24.870;2024-03-02T13:12:57;32.22;;;24.10;;
46411;SDS011;32113;42.012;24.870;2024-03-02T13:15:23;30.88;;;22.05;;
46411;SDS011;32113;42.012;24.870;2024-03-02T13:17:51;29.42;;;22.58;;
46411;SDS011;32113;42.012;24.870;2024-03-02T13:20:16;30.90;;;22.35;;
46411;SDS011;32113;42.012;24.870;2024-03-02T13:22:43;31.83;;;23.00;;
46411;SDS011;32113;42.012;24.870;2024-03-02T13:25:08;30.42;;;23.88;;
46411;SDS011;32113;42.012;24.870;2024-03-02T13:27:35;30.33;;;23.55;;
46411;SDS011;32113;42.012;24.870;2024-03-02T13:30:02;32.15;;;23.38;;
46411;SDS011;32113;42.012;24.870;2024-03-02T13:32:28;32.80;;;24.05;;
46411;SDS011;32113;42.012;24.870;2024-03-02T13:34:53;33.10;;;23.73;;
46411;SDS011;32113;42.012;24.870;2024-03-02T13:37:20;31.42;;;25.50;;
46411;SDS011;32113;42.012;24.870;2024-03-02T13:39:46;28.30;;;24.10;;
46411;SDS011;32113;42.012;24.870;2024-03-02T13:42:11;33.22;;;23.10;;
46411;SDS011;32113;42.012;24.870;2024-03-02T13:44:39;27.58;;;23.40;;
46411;SDS011;32113;42.012;24.870;2024-03-02T13:47:06;31.85;;;25.48;;
46411;SDS011;32113;42.012;24.870;2024-03-02T13:49:32;32.42;;;26.65;;
46411;SDS011;32113;42.012;24.870;2024-03-02T13:52:06;33.58;;;25.42;;
46411;SDS011;32113;42.012;24.870;2024-03-02T13:54:52;30.10;;;23.83;;
46411;SDS011;32113;42.012;24.870;2024-03-02T13:57:17;30.95;;;23.80;;
46411;SDS011;32113;42.012;24.870;2024-03-02T13:59:44;34.43;;;24.77;;
46411;SDS011;32113;42.012;24.870;2024-03-02T14:02:11;28.20;;;23.50;;
46411;SDS011;32113;42.012;24.870;2024-03-02T14:04:37;26.77;;;21.98;;
46411;SDS011;32113;42.012;24.870;2024-03-02T14:07:04;26.63;;;23.05;;
46411;SDS011;32113;42.012;24.870;2024-03-02T14:09:33;31.67;;;25.90;;
46411;SDS011;32113;42.012;24.870;2024-03-02T14:11:58;28.52;;;25.00;;
46411;SDS011;32113;42.012;24.870;2024-03-02T14:14:25;42.17;;;33.20;;
46411;SDS011;32113;42.012;24.870;2024-03-02T14:16:52;36.08;;;28.05;;
46411;SDS011;32113;42.012;24.870;2024-03-02T14:19:18;29.45;;;24.35;;
46411;SDS011;32113;42.012;24.870;2024-03-02T14:21:43;79.53;;;55.55;;
46411;SDS011;32113;42.012;24.870;2024-03-02T14:24:09;32.60;;;27.33;;
46411;SDS011;32113;42.012;24.870;2024-03-02T14:26:35;33.30;;;27.17;;